sensor_id;sensor_type;location;lat;lon;timestamp;P1;durP1;ratioP1;P2;durP2;ratioP2
41677;SDS011;27364;49.026;8.712;2023-03-11T00:00:14;3.90;;;1.50;;
41677;SDS011;27364;49.026;8.712;2023-03-11T00:02:43;3.63;;;1.77;;
41677;SDS011;27364;49.026;8.712;2023-03-11T00:05:17;3.33;;;1.65;;
41677;SDS011;27364;49.026;8.712;2023-03-11T00:07:51;2.90;;;1.70;;
41677;SDS011;27364;49.026;8.712;2023-03-11T00:10:18;3.50;;;1.85;;
41677;SDS011;27364;49.026;8.712;2023-03-11T00:12:52;2.85;;;1.65;;
41677;SDS011;27364;49.026;8.712;2023-03-11T00:15:18;2.95;;;1.60;;
41677;SDS011;27364;49.026;8.712;2023-03-11T00:17:43;3.83;;;1.60;;
41677;SDS011;27364;49.026;8.712;2023-03-11T00:20:21;2.72;;;1.67;;
41677;SDS011;27364;49.026;8.712;2023-03-11T00:22:49;2.95;;;1.63;;
41677;SDS011;27364;49.026;8.712;2023-03-11T00:27:43;3.22;;;1.70;;
41677;SDS011;27364;49.026;8.712;2023-03-11T00:30:09;4.68;;;2.25;;
41677;SDS011;27364;49.026;8.712;2023-03-11T00:32:36;4.25;;;1.85;;
41677;SDS011;27364;49.026;8.712;2023-03-11T00:35:01;3.45;;;2.20;;
41677;SDS011;27364;49.026;8.712;2023-03-11T00:37:27;3.20;;;1.83;;
41677;SDS011;27364;49.026;8.712;2023-03-11T00:39:53;6.20;;;2.20;;
41677;SDS011;27364;49.026;8.712;2023-03-11T00:42:18;2.97;;;1.80;;
41677;SDS011;27364;49.026;8.712;2023-03-11T00:44:44;3.42;;;2.00;;
41677;SDS011;27364;49.026;8.712;2023-03-11T00:47:10;4.15;;;2.10;;
41677;SDS011;27364;49.026;8.712;2023-03-11T00:49:36;3.20;;;1.80;;
41677;SDS011;27364;49.026;8.712;2023-03-11T00:52:02;3.83;;;2.33;;
41677;SDS011;27364;49.026;8.712;2023-03-11T00:54:28;3.13;;;1.58;;
41677;SDS011;27364;49.026;8.712;2023-03-11T00:56:54;2.90;;;2.03;;
41677;SDS011;27364;49.026;8.712;2023-03-11T00:59:19;3.25;;;2.10;;
41677;SDS011;27364;49.026;8.712;2023-03-11T01:01:45;3.40;;;1.90;;
41677;SDS011;27364;49.026;8.712;2023-03-11T01:04:10;3.55;;;1.50;;
41677;SDS011;27364;49.026;8.712;2023-03-11T01:06:36;4.55;;;1.92;;
41677;SDS011;27364;49.026;8.712;2023-03-11T01:09:01;3.60;;;1.80;;
41677;SDS011;27364;49.026;8.712;2023-03-11T01:11:28;3.70;;;1.80;;
41677;SDS011;27364;49.026;8.712;2023-03-11T01:13:54;3.65;;;1.77;;
41677;SDS011;27364;49.026;8.712;2023-03-11T01:16:19;3.03;;;1.73;;
41677;SDS011;27364;49.026;8.712;2023-03-11T01:18:45;2.63;;;1.38;;
41677;SDS011;27364;49.026;8.712;2023-03-11T01:21:11;2.58;;;1.40;;
41677;SDS011;27364;49.026;8.712;2023-03-11T01:23:37;3.28;;;1.42;;
41677;SDS011;27364;49.026;8.712;2023-03-11T01:26:04;3.30;;;1.67;;
41677;SDS011;27364;49.026;8.712;2023-03-11T01:28:29;2.70;;;1.40;;
41677;SDS011;27364;49.026;8.712;2023-03-11T01:30:55;3.08;;;1.42;;
41677;SDS011;27364;49.026;8.712;2023-03-11T01:33:21;2.92;;;1.60;;
41677;SDS011;27364;49.026;8.712;2023-03-11T01:35:46;3.30;;;1.52;;
41677;SDS011;27364;49.026;8.712;2023-03-11T01:38:13;2.42;;;1.48;;
41677;SDS011;27364;49.026;8.712;2023-03-11T01:43:36;3.00;;;1.73;;
41677;SDS011;27364;49.026;8.712;2023-03-11T01:48:39;3.40;;;1.48;;
41677;SDS011;27364;49.026;8.712;2023-03-11T01:51:09;2.72;;;1.52;;
41677;SDS011;27364;49.026;8.712;2023-03-11T01:53:34;3.15;;;1.30;;
41677;SDS011;27364;49.026;8.712;2023-03-11T01:56:01;4.68;;;1.50;;
41677;SDS011;27364;49.026;8.712;2023-03-11T02:00:56;4.10;;;1.55;;
41677;SDS011;27364;49.026;8.712;2023-03-11T02:03:29;3.00;;;1.20;;
41677;SDS011;27364;49.026;8.712;2023-03-11T02:05:57;3.90;;;1.70;;
41677;SDS011;27364;49.026;8.712;2023-03-11T02:08:26;2.33;;;1.20;;
41677;SDS011;27364;49.026;8.712;2023-03-11T02:13:20;4.57;;;1.63;;
41677;SDS011;27364;49.026;8.712;2023-03-11T02:15:45;2.38;;;1.38;;
41677;SDS011;27364;49.026;8.712;2023-03-11T02:18:12;3.13;;;1.35;;
41677;SDS011;27364;49.026;8.712;2023-03-11T02:23:08;3.50;;;1.65;;
41677;SDS011;27364;49.026;8.712;2023-03-11T02:25:57;2.30;;;1.30;;
41677;SDS011;27364;49.026;8.712;2023-03-11T02:28:41;4.18;;;1.50;;
41677;SDS011;27364;49.026;8.712;2023-03-11T02:31:07;4.00;;;1.30;;
41677;SDS011;27364;49.026;8.712;2023-03-11T02:33:33;3.45;;;1.38;;
41677;SDS011;27364;49.026;8.712;2023-03-11T02:36:00;2.78;;;1.30;;
41677;SDS011;27364;49.026;8.712;2023-03-11T02:38:26;4.03;;;1.50;;
41677;SDS011;27364;49.026;8.712;2023-03-11T02:41:01;4.97;;;1.30;;
41677;SDS011;27364;49.026;8.712;2023-03-11T02:43:32;4.70;;;1.45;;
41677;SDS011;27364;49.026;8.712;2023-03-11T02:46:02;3.95;;;1.70;;
41677;SDS011;27364;49.026;8.712;2023-03-11T02:48:29;2.63;;;1.20;;
41677;SDS011;27364;49.026;8.712;2023-03-11T02:50:55;4.60;;;1.33;;
41677;SDS011;27364;49.026;8.712;2023-03-11T02:53:21;2.72;;;1.30;;
41677;SDS011;27364;49.026;8.712;2023-03-11T02:55:47;3.40;;;1.30;;
41677;SDS011;27364;49.026;8.712;2023-03-11T02:58:12;5.07;;;2.80;;
41677;SDS011;27364;49.026;8.712;2023-03-11T03:00:38;5.45;;;1.38;;
41677;SDS011;27364;49.026;8.712;2023-03-11T03:03:03;4.88;;;1.60;;
41677;SDS011;27364;49.026;8.712;2023-03-11T03:05:29;2.70;;;1.20;;
41677;SDS011;27364;49.026;8.712;2023-03-11T03:07:55;2.50;;;1.25;;
41677;SDS011;27364;49.026;8.712;2023-03-11T03:10:21;5.30;;;1.60;;
41677;SDS011;27364;49.026;8.712;2023-03-11T03:12:47;2.53;;;1.15;;
41677;SDS011;27364;49.026;8.712;2023-03-11T03:15:12;3.20;;;1.33;;
41677;SDS011;27364;49.026;8.712;2023-03-11T03:17:39;5.15;;;1.50;;
41677;SDS011;27364;49.026;8.712;2023-03-11T03:20:05;3.08;;;1.30;;
41677;SDS011;27364;49.026;8.712;2023-03-11T03:22:35;5.30;;;1.45;;
41677;SDS011;27364;49.026;8.712;2023-03-11T03:25:01;1.85;;;1.20;;
41677;SDS011;27364;49.026;8.712;2023-03-11T03:27:27;3.60;;;1.20;;
41677;SDS011;27364;49.026;8.712;2023-03-11T03:29:52;2.88;;;1.63;;
41677;SDS011;27364;49.026;8.712;2023-03-11T03:32:17;4.03;;;1.30;;
41677;SDS011;27364;49.026;8.712;2023-03-11T03:34:43;3.67;;;1.90;;
41677;SDS011;27364;49.026;8.712;2023-03-11T03:37:08;3.45;;;1.30;;
41677;SDS011;27364;49.026;8.712;2023-03-11T03:39:34;4.47;;;1.25;;
41677;SDS011;27364;49.026;8.712;2023-03-11T03:42:00;2.53;;;1.42;;
41677;SDS011;27364;49.026;8.712;2023-03-11T03:44:25;3.78;;;1.55;;
41677;SDS011;27364;49.026;8.712;2023-03-11T03:46:51;4.57;;;1.52;;
41677;SDS011;27364;49.026;8.712;2023-03-11T03:49:16;3.30;;;1.10;;
41677;SDS011;27364;49.026;8.712;2023-03-11T03:51:42;2.72;;;1.40;;
41677;SDS011;27364;49.026;8.712;2023-03-11T03:54:07;3.33;;;1.40;;
41677;SDS011;27364;49.026;8.712;2023-03-11T03:56:33;4.57;;;1.10;;
41677;SDS011;27364;49.026;8.712;2023-03-11T03:58:58;3.80;;;1.40;;
41677;SDS011;27364;49.026;8.712;2023-03-11T04:01:24;5.40;;;1.52;;
41677;SDS011;27364;49.026;8.712;2023-03-11T04:03:49;5.22;;;1.55;;
41677;SDS011;27364;49.026;8.712;2023-03-11T04:08:49;3.38;;;1.55;;
41677;SDS011;27364;49.026;8.712;2023-03-11T04:11:16;3.58;;;1.30;;
41677;SDS011;27364;49.026;8.712;2023-03-11T04:13:42;2.80;;;1.23;;
41677;SDS011;27364;49.026;8.712;2023-03-11T04:16:09;4.57;;;1.50;;
41677;SDS011;27364;49.026;8.712;2023-03-11T04:18:44;3.20;;;1.42;;
41677;SDS011;27364;49.026;8.712;2023-03-11T04:21:10;4.70;;;1.50;;
41677;SDS011;27364;49.026;8.712;2023-03-11T04:23:35;3.90;;;1.45;;
41677;SDS011;27364;49.026;8.712;2023-03-11T04:26:01;4.07;;;1.50;;
41677;SDS011;27364;49.026;8.712;2023-03-11T04:28:27;3.28;;;1.50;;
41677;SDS011;27364;49.026;8.712;2023-03-11T04:30:52;3.13;;;1.60;;
41677;SDS011;27364;49.026;8.712;2023-03-11T04:33:18;4.75;;;1.48;;
41677;SDS011;27364;49.026;8.712;2023-03-11T04:35:44;3.42;;;1.35;;
41677;SDS011;27364;49.026;8.712;2023-03-11T04:38:09;4.50;;;1.42;;
41677;SDS011;27364;49.026;8.712;2023-03-11T04:40:36;5.57;;;2.47;;
41677;SDS011;27364;49.026;8.712;2023-03-11T04:43:02;2.05;;;1.20;;
41677;SDS011;27364;49.026;8.712;2023-03-11T04:45:27;4.63;;;1.67;;
41677;SDS011;27364;49.026;8.712;2023-03-11T04:47:53;4.63;;;1.70;;
41677;SDS011;27364;49.026;8.712;2023-03-11T04:50:18;3.35;;;1.75;;
41677;SDS011;27364;49.026;8.712;2023-03-11T04:52:45;3.83;;;1.48;;
41677;SDS011;27364;49.026;8.712;2023-03-11T04:55:11;4.28;;;1.67;;
41677;SDS011;27364;49.026;8.712;2023-03-11T04:57:37;3.55;;;1.50;;
41677;SDS011;27364;49.026;8.712;2023-03-11T05:00:04;3.17;;;1.60;;
41677;SDS011;27364;49.026;8.712;2023-03-11T05:02:33;5.25;;;1.63;;
41677;SDS011;27364;49.026;8.712;2023-03-11T05:04:59;5.55;;;1.70;;
41677;SDS011;27364;49.026;8.712;2023-03-11T05:07:24;4.00;;;1.40;;
41677;SDS011;27364;49.026;8.712;2023-03-11T05:09:50;5.25;;;1.98;;
41677;SDS011;27364;49.026;8.712;2023-03-11T05:12:16;4.50;;;1.90;;
41677;SDS011;27364;49.026;8.712;2023-03-11T05:14:41;5.32;;;1.50;;
41677;SDS011;27364;49.026;8.712;2023-03-11T05:17:07;4.80;;;1.58;;
41677;SDS011;27364;49.026;8.712;2023-03-11T05:19:34;6.53;;;1.90;;
41677;SDS011;27364;49.026;8.712;2023-03-11T05:22:00;4.68;;;1.80;;
41677;SDS011;27364;49.026;8.712;2023-03-11T05:24:26;4.75;;;2.13;;
41677;SDS011;27364;49.026;8.712;2023-03-11T05:26:52;7.25;;;2.75;;
41677;SDS011;27364;49.026;8.712;2023-03-11T05:29:18;5.00;;;2.05;;
41677;SDS011;27364;49.026;8.712;2023-03-11T05:31:44;7.10;;;2.65;;
41677;SDS011;27364;49.026;8.712;2023-03-11T05:34:10;8.30;;;3.47;;
41677;SDS011;27364;49.026;8.712;2023-03-11T05:36:36;9.90;;;3.70;;
41677;SDS011;27364;49.026;8.712;2023-03-11T05:39:02;9.45;;;3.67;;
41677;SDS011;27364;49.026;8.712;2023-03-11T05:41:28;6.55;;;3.28;;
41677;SDS011;27364;49.026;8.712;2023-03-11T05:43:53;5.00;;;2.30;;
41677;SDS011;27364;49.026;8.712;2023-03-11T05:46:19;7.68;;;2.70;;
41677;SDS011;27364;49.026;8.712;2023-03-11T05:48:44;4.60;;;1.90;;
41677;SDS011;27364;49.026;8.712;2023-03-11T05:51:10;5.45;;;2.13;;
41677;SDS011;27364;49.026;8.712;2023-03-11T05:53:36;7.53;;;1.92;;
41677;SDS011;27364;49.026;8.712;2023-03-11T05:56:03;4.93;;;1.90;;
41677;SDS011;27364;49.026;8.712;2023-03-11T05:58:30;5.85;;;2.30;;
41677;SDS011;27364;49.026;8.712;2023-03-11T06:00:56;4.07;;;1.80;;
41677;SDS011;27364;49.026;8.712;2023-03-11T06:03:23;3.97;;;1.70;;
41677;SDS011;27364;49.026;8.712;2023-03-11T06:05:48;7.13;;;2.03;;
41677;SDS011;27364;49.026;8.712;2023-03-11T06:08:15;5.53;;;1.88;;
41677;SDS011;27364;49.026;8.712;2023-03-11T06:10:41;3.35;;;1.63;;
41677;SDS011;27364;49.026;8.712;2023-03-11T06:13:07;4.85;;;1.90;;
41677;SDS011;27364;49.026;8.712;2023-03-11T06:15:33;3.90;;;1.67;;
41677;SDS011;27364;49.026;8.712;2023-03-11T06:18:00;5.22;;;2.05;;
41677;SDS011;27364;49.026;8.712;2023-03-11T06:20:25;5.78;;;2.10;;
41677;SDS011;27364;49.026;8.712;2023-03-11T06:22:51;3.20;;;1.60;;
41677;SDS011;27364;49.026;8.712;2023-03-11T06:25:20;6.28;;;1.90;;
41677;SDS011;27364;49.026;8.712;2023-03-11T06:27:49;5.53;;;2.03;;
41677;SDS011;27364;49.026;8.712;2023-03-11T06:30:17;4.03;;;1.90;;
41677;SDS011;27364;49.026;8.712;2023-03-11T06:32:44;6.03;;;1.90;;
41677;SDS011;27364;49.026;8.712;2023-03-11T06:35:13;4.82;;;1.50;;
41677;SDS011;27364;49.026;8.712;2023-03-11T06:37:38;5.90;;;2.05;;
41677;SDS011;27364;49.026;8.712;2023-03-11T06:40:05;5.78;;;2.20;;
41677;SDS011;27364;49.026;8.712;2023-03-11T06:42:32;3.28;;;1.65;;
41677;SDS011;27364;49.026;8.712;2023-03-11T06:44:58;5.63;;;1.65;;
41677;SDS011;27364;49.026;8.712;2023-03-11T06:47:23;6.68;;;2.47;;
41677;SDS011;27364;49.026;8.712;2023-03-11T06:49:49;5.97;;;1.83;;
41677;SDS011;27364;49.026;8.712;2023-03-11T06:52:15;7.72;;;1.70;;
41677;SDS011;27364;49.026;8.712;2023-03-11T06:54:41;11.95;;;6.63;;
41677;SDS011;27364;49.026;8.712;2023-03-11T06:57:07;6.57;;;2.10;;
41677;SDS011;27364;49.026;8.712;2023-03-11T06:59:33;5.88;;;2.00;;
41677;SDS011;27364;49.026;8.712;2023-03-11T07:01:59;3.10;;;1.52;;
41677;SDS011;27364;49.026;8.712;2023-03-11T07:04:24;4.03;;;1.60;;
41677;SDS011;27364;49.026;8.712;2023-03-11T07:06:50;3.45;;;1.60;;
41677;SDS011;27364;49.026;8.712;2023-03-11T07:09:15;5.20;;;1.75;;
41677;SDS011;27364;49.026;8.712;2023-03-11T07:11:41;3.95;;;1.60;;
41677;SDS011;27364;49.026;8.712;2023-03-11T07:14:06;7.20;;;1.98;;
41677;SDS011;27364;49.026;8.712;2023-03-11T07:16:37;4.25;;;1.90;;
41677;SDS011;27364;49.026;8.712;2023-03-11T07:19:03;5.03;;;1.75;;
41677;SDS011;27364;49.026;8.712;2023-03-11T07:21:29;4.57;;;1.63;;
41677;SDS011;27364;49.026;8.712;2023-03-11T07:23:56;4.70;;;1.63;;
41677;SDS011;27364;49.026;8.712;2023-03-11T07:26:23;2.50;;;1.27;;
41677;SDS011;27364;49.026;8.712;2023-03-11T07:28:50;3.80;;;1.45;;
41677;SDS011;27364;49.026;8.712;2023-03-11T07:31:18;4.75;;;1.73;;
41677;SDS011;27364;49.026;8.712;2023-03-11T07:33:45;6.63;;;1.75;;
41677;SDS011;27364;49.026;8.712;2023-03-11T07:36:12;6.43;;;1.80;;
41677;SDS011;27364;49.026;8.712;2023-03-11T07:38:40;6.90;;;1.83;;
41677;SDS011;27364;49.026;8.712;2023-03-11T07:41:06;5.13;;;1.80;;
41677;SDS011;27364;49.026;8.712;2023-03-11T07:43:32;6.57;;;1.75;;
41677;SDS011;27364;49.026;8.712;2023-03-11T07:46:02;7.95;;;1.73;;
41677;SDS011;27364;49.026;8.712;2023-03-11T07:48:36;6.63;;;1.70;;
41677;SDS011;27364;49.026;8.712;2023-03-11T07:51:04;8.00;;;1.98;;
41677;SDS011;27364;49.026;8.712;2023-03-11T07:55:57;9.27;;;2.00;;
41677;SDS011;27364;49.026;8.712;2023-03-11T07:58:23;8.40;;;3.63;;
41677;SDS011;27364;49.026;8.712;2023-03-11T08:00:49;4.85;;;1.90;;
41677;SDS011;27364;49.026;8.712;2023-03-11T08:03:15;6.10;;;1.98;;
41677;SDS011;27364;49.026;8.712;2023-03-11T08:05:41;5.20;;;1.85;;
41677;SDS011;27364;49.026;8.712;2023-03-11T08:08:06;5.72;;;2.00;;
41677;SDS011;27364;49.026;8.712;2023-03-11T08:10:34;3.80;;;1.70;;
41677;SDS011;27364;49.026;8.712;2023-03-11T08:13:01;8.65;;;2.00;;
41677;SDS011;27364;49.026;8.712;2023-03-11T08:15:26;4.35;;;1.73;;
41677;SDS011;27364;49.026;8.712;2023-03-11T08:17:52;4.65;;;1.70;;
41677;SDS011;27364;49.026;8.712;2023-03-11T08:20:18;5.55;;;1.70;;
41677;SDS011;27364;49.026;8.712;2023-03-11T08:22:44;3.70;;;1.40;;
41677;SDS011;27364;49.026;8.712;2023-03-11T08:25:09;9.27;;;2.70;;
41677;SDS011;27364;49.026;8.712;2023-03-11T08:27:34;6.47;;;2.22;;
41677;SDS011;27364;49.026;8.712;2023-03-11T08:30:00;9.15;;;2.53;;
41677;SDS011;27364;49.026;8.712;2023-03-11T08:32:26;9.05;;;2.47;;
41677;SDS011;27364;49.026;8.712;2023-03-11T08:34:55;7.68;;;2.55;;
41677;SDS011;27364;49.026;8.712;2023-03-11T08:37:21;5.82;;;2.15;;
41677;SDS011;27364;49.026;8.712;2023-03-11T08:39:46;6.57;;;2.17;;
41677;SDS011;27364;49.026;8.712;2023-03-11T08:42:12;17.60;;;7.38;;
41677;SDS011;27364;49.026;8.712;2023-03-11T08:44:37;5.72;;;1.95;;
41677;SDS011;27364;49.026;8.712;2023-03-11T08:47:03;10.02;;;3.17;;
41677;SDS011;27364;49.026;8.712;2023-03-11T08:49:28;12.07;;;2.92;;
41677;SDS011;27364;49.026;8.712;2023-03-11T08:51:54;8.40;;;3.33;;
41677;SDS011;27364;49.026;8.712;2023-03-11T08:54:20;17.40;;;6.18;;
41677;SDS011;27364;49.026;8.712;2023-03-11T08:56:45;6.50;;;2.05;;
41677;SDS011;27364;49.026;8.712;2023-03-11T08:59:12;6.85;;;2.20;;
41677;SDS011;27364;49.026;8.712;2023-03-11T09:01:38;8.15;;;2.13;;
41677;SDS011;27364;49.026;8.712;2023-03-11T09:04:04;6.45;;;1.60;;
41677;SDS011;27364;49.026;8.712;2023-03-11T09:06:29;6.15;;;1.83;;
41677;SDS011;27364;49.026;8.712;2023-03-11T09:08:55;6.65;;;1.83;;
41677;SDS011;27364;49.026;8.712;2023-03-11T09:11:21;4.68;;;1.90;;
41677;SDS011;27364;49.026;8.712;2023-03-11T09:13:46;7.90;;;2.15;;
41677;SDS011;27364;49.026;8.712;2023-03-11T09:16:13;3.95;;;1.58;;
41677;SDS011;27364;49.026;8.712;2023-03-11T09:18:40;8.20;;;2.03;;
41677;SDS011;27364;49.026;8.712;2023-03-11T09:21:06;6.28;;;1.77;;
41677;SDS011;27364;49.026;8.712;2023-03-11T09:23:32;7.18;;;2.25;;
41677;SDS011;27364;49.026;8.712;2023-03-11T09:25:57;4.95;;;2.00;;
41677;SDS011;27364;49.026;8.712;2023-03-11T09:28:23;3.25;;;1.73;;
41677;SDS011;27364;49.026;8.712;2023-03-11T09:30:48;4.68;;;1.70;;
41677;SDS011;27364;49.026;8.712;2023-03-11T09:33:14;3.72;;;1.60;;
41677;SDS011;27364;49.026;8.712;2023-03-11T09:35:40;6.88;;;1.95;;
41677;SDS011;27364;49.026;8.712;2023-03-11T09:38:05;6.10;;;1.92;;
41677;SDS011;27364;49.026;8.712;2023-03-11T09:40:40;5.40;;;2.08;;
41677;SDS011;27364;49.026;8.712;2023-03-11T09:43:21;5.65;;;1.70;;
41677;SDS011;27364;49.026;8.712;2023-03-11T09:45:49;7.47;;;1.98;;
41677;SDS011;27364;49.026;8.712;2023-03-11T09:48:35;5.70;;;1.90;;
41677;SDS011;27364;49.026;8.712;2023-03-11T09:53:44;7.50;;;3.25;;
41677;SDS011;27364;49.026;8.712;2023-03-11T09:56:15;6.00;;;2.17;;
41677;SDS011;27364;49.026;8.712;2023-03-11T09:58:50;7.80;;;2.20;;
41677;SDS011;27364;49.026;8.712;2023-03-11T10:01:20;5.50;;;1.80;;
41677;SDS011;27364;49.026;8.712;2023-03-11T10:03:56;4.22;;;1.52;;
41677;SDS011;27364;49.026;8.712;2023-03-11T10:06:28;5.43;;;2.03;;
41677;SDS011;27364;49.026;8.712;2023-03-11T10:14:25;4.20;;;1.70;;
41677;SDS011;27364;49.026;8.712;2023-03-11T10:17:20;6.07;;;1.63;;
41677;SDS011;27364;49.026;8.712;2023-03-11T10:22:42;4.28;;;1.70;;
41677;SDS011;27364;49.026;8.712;2023-03-11T10:36:22;5.57;;;1.83;;
41677;SDS011;27364;49.026;8.712;2023-03-11T10:38:51;4.85;;;2.05;;
41677;SDS011;27364;49.026;8.712;2023-03-11T10:44:31;4.25;;;1.77;;
41677;SDS011;27364;49.026;8.712;2023-03-11T10:46:59;6.95;;;2.10;;
41677;SDS011;27364;49.026;8.712;2023-03-11T10:49:26;6.38;;;1.92;;
41677;SDS011;27364;49.026;8.712;2023-03-11T10:51:52;4.43;;;1.90;;
41677;SDS011;27364;49.026;8.712;2023-03-11T10:54:20;5.20;;;1.48;;
41677;SDS011;27364;49.026;8.712;2023-03-11T10:56:50;4.97;;;1.70;;
41677;SDS011;27364;49.026;8.712;2023-03-11T10:59:33;4.22;;;1.60;;
41677;SDS011;27364;49.026;8.712;2023-03-11T11:02:27;5.80;;;1.70;;
41677;SDS011;27364;49.026;8.712;2023-03-11T11:07:47;5.35;;;1.58;;
41677;SDS011;27364;49.026;8.712;2023-03-11T11:12:49;4.43;;;1.50;;
41677;SDS011;27364;49.026;8.712;2023-03-11T11:17:55;6.32;;;1.60;;
41677;SDS011;27364;49.026;8.712;2023-03-11T11:20:24;4.78;;;1.50;;
41677;SDS011;27364;49.026;8.712;2023-03-11T11:22:58;4.75;;;1.83;;
41677;SDS011;27364;49.026;8.712;2023-03-11T11:28:11;4.53;;;1.90;;
41677;SDS011;27364;49.026;8.712;2023-03-11T11:30:51;5.20;;;1.63;;
41677;SDS011;27364;49.026;8.712;2023-03-11T11:33:23;5.05;;;1.67;;
41677;SDS011;27364;49.026;8.712;2023-03-11T11:35:53;4.22;;;1.60;;
41677;SDS011;27364;49.026;8.712;2023-03-11T11:38:21;5.75;;;1.90;;
41677;SDS011;27364;49.026;8.712;2023-03-11T11:40:50;4.50;;;1.60;;
41677;SDS011;27364;49.026;8.712;2023-03-11T11:43:18;4.00;;;1.73;;
41677;SDS011;27364;49.026;8.712;2023-03-11T11:45:52;4.40;;;1.80;;
41677;SDS011;27364;49.026;8.712;2023-03-11T11:49:04;4.55;;;1.65;;
41677;SDS011;27364;49.026;8.712;2023-03-11T11:51:35;3.80;;;1.75;;
41677;SDS011;27364;49.026;8.712;2023-03-11T11:54:15;4.05;;;1.50;;
41677;SDS011;27364;49.026;8.712;2023-03-11T11:56:48;3.17;;;1.30;;
41677;SDS011;27364;49.026;8.712;2023-03-11T11:59:15;5.03;;;1.42;;
41677;SDS011;27364;49.026;8.712;2023-03-11T12:07:21;3.22;;;1.30;;
41677;SDS011;27364;49.026;8.712;2023-03-11T12:15:52;3.53;;;1.40;;
41677;SDS011;27364;49.026;8.712;2023-03-11T12:18:59;3.92;;;1.60;;
41677;SDS011;27364;49.026;8.712;2023-03-11T12:27:26;3.22;;;1.33;;
41677;SDS011;27364;49.026;8.712;2023-03-11T12:30:04;3.83;;;1.60;;
41677;SDS011;27364;49.026;8.712;2023-03-11T12:32:46;4.80;;;1.45;;
41677;SDS011;27364;49.026;8.712;2023-03-11T12:35:19;3.30;;;1.70;;
41677;SDS011;27364;49.026;8.712;2023-03-11T12:37:56;4.15;;;1.50;;
41677;SDS011;27364;49.026;8.712;2023-03-11T12:43:22;6.13;;;1.65;;
41677;SDS011;27364;49.026;8.712;2023-03-11T12:45:55;4.10;;;1.70;;
41677;SDS011;27364;49.026;8.712;2023-03-11T12:50:59;3.67;;;1.60;;
41677;SDS011;27364;49.026;8.712;2023-03-11T12:53:47;3.50;;;1.40;;
41677;SDS011;27364;49.026;8.712;2023-03-11T13:04:56;5.93;;;1.90;;
41677;SDS011;27364;49.026;8.712;2023-03-11T13:18:41;5.00;;;1.70;;
41677;SDS011;27364;49.026;8.712;2023-03-11T13:24:38;3.72;;;1.60;;
41677;SDS011;27364;49.026;8.712;2023-03-11T13:26:46;6.90;;;2.75;;
41677;SDS011;27364;49.026;8.712;2023-03-11T13:34:41;6.38;;;2.60;;
41677;SDS011;27364;49.026;8.712;2023-03-11T13:37:21;3.22;;;1.40;;
41677;SDS011;27364;49.026;8.712;2023-03-11T13:42:34;4.13;;;1.80;;
41677;SDS011;27364;49.026;8.712;2023-03-11T13:45:28;4.20;;;1.67;;
41677;SDS011;27364;49.026;8.712;2023-03-11T13:48:13;5.43;;;1.88;;
41677;SDS011;27364;49.026;8.712;2023-03-11T13:50:44;4.43;;;2.22;;
41677;SDS011;27364;49.026;8.712;2023-03-11T13:53:16;4.97;;;1.58;;
41677;SDS011;27364;49.026;8.712;2023-03-11T13:55:46;5.50;;;1.65;;
41677;SDS011;27364;49.026;8.712;2023-03-11T13:58:20;4.10;;;1.67;;
41677;SDS011;27364;49.026;8.712;2023-03-11T14:00:57;3.67;;;1.50;;
41677;SDS011;27364;49.026;8.712;2023-03-11T14:03:24;5.28;;;1.70;;
41677;SDS011;27364;49.026;8.712;2023-03-11T14:08:30;4.20;;;1.60;;
41677;SDS011;27364;49.026;8.712;2023-03-11T14:11:01;3.33;;;1.60;;
41677;SDS011;27364;49.026;8.712;2023-03-11T14:13:55;3.75;;;1.60;;
41677;SDS011;27364;49.026;8.712;2023-03-11T14:16:31;3.13;;;1.60;;
41677;SDS011;27364;49.026;8.712;2023-03-11T14:21:41;2.40;;;1.40;;
41677;SDS011;27364;49.026;8.712;2023-03-11T14:24:14;3.80;;;1.60;;
41677;SDS011;27364;49.026;8.712;2023-03-11T14:26:40;3.35;;;1.42;;
41677;SDS011;27364;49.026;8.712;2023-03-11T14:29:07;3.83;;;1.55;;
41677;SDS011;27364;49.026;8.712;2023-03-11T14:31:37;5.28;;;2.15;;
41677;SDS011;27364;49.026;8.712;2023-03-11T14:34:23;3.78;;;1.85;;
41677;SDS011;27364;49.026;8.712;2023-03-11T14:36:59;3.72;;;1.80;;
41677;SDS011;27364;49.026;8.712;2023-03-11T14:39:29;4.45;;;1.67;;
41677;SDS011;27364;49.026;8.712;2023-03-11T14:41:57;8.30;;;3.20;;
41677;SDS011;27364;49.026;8.712;2023-03-11T14:44:24;5.03;;;2.30;;
41677;SDS011;27364;49.026;8.712;2023-03-11T14:46:51;5.60;;;2.00;;
41677;SDS011;27364;49.026;8.712;2023-03-11T14:49:25;5.70;;;2.40;;
41677;SDS011;27364;49.026;8.712;2023-03-11T14:52:37;13.70;;;7.72;;
41677;SDS011;27364;49.026;8.712;2023-03-11T14:54:49;6.68;;;2.50;;
41677;SDS011;27364;49.026;8.712;2023-03-11T14:57:25;3.85;;;1.83;;
41677;SDS011;27364;49.026;8.712;2023-03-11T15:00:12;3.72;;;1.42;;
41677;SDS011;27364;49.026;8.712;2023-03-11T15:06:27;5.40;;;2.38;;
41677;SDS011;27364;49.026;8.712;2023-03-11T15:08:25;4.43;;;2.00;;
41677;SDS011;27364;49.026;8.712;2023-03-11T15:11:06;6.30;;;3.15;;
41677;SDS011;27364;49.026;8.712;2023-03-11T15:13:43;9.63;;;5.20;;
41677;SDS011;27364;49.026;8.712;2023-03-11T15:18:52;10.85;;;4.90;;
41677;SDS011;27364;49.026;8.712;2023-03-11T15:21:20;14.55;;;9.10;;
41677;SDS011;27364;49.026;8.712;2023-03-11T15:24:05;13.50;;;6.10;;
41677;SDS011;27364;49.026;8.712;2023-03-11T15:26:51;16.60;;;8.65;;
41677;SDS011;27364;49.026;8.712;2023-03-11T15:29:19;5.32;;;2.03;;
41677;SDS011;27364;49.026;8.712;2023-03-11T15:31:45;4.90;;;1.77;;
41677;SDS011;27364;49.026;8.712;2023-03-11T15:39:13;3.38;;;1.67;;
41677;SDS011;27364;49.026;8.712;2023-03-11T15:41:45;4.82;;;1.98;;
41677;SDS011;27364;49.026;8.712;2023-03-11T15:44:32;5.07;;;1.95;;
41677;SDS011;27364;49.026;8.712;2023-03-11T15:47:13;18.58;;;8.20;;
41677;SDS011;27364;49.026;8.712;2023-03-11T15:49:40;13.13;;;6.28;;
41677;SDS011;27364;49.026;8.712;2023-03-11T15:52:09;7.72;;;4.25;;
41677;SDS011;27364;49.026;8.712;2023-03-11T15:54:35;17.30;;;9.50;;
41677;SDS011;27364;49.026;8.712;2023-03-11T15:57:01;7.43;;;3.03;;
41677;SDS011;27364;49.026;8.712;2023-03-11T15:59:30;5.07;;;2.25;;
41677;SDS011;27364;49.026;8.712;2023-03-11T16:01:57;5.78;;;2.22;;
41677;SDS011;27364;49.026;8.712;2023-03-11T16:04:23;5.25;;;1.88;;
41677;SDS011;27364;49.026;8.712;2023-03-11T16:06:49;4.40;;;1.70;;
41677;SDS011;27364;49.026;8.712;2023-03-11T16:09:14;5.15;;;2.20;;
41677;SDS011;27364;49.026;8.712;2023-03-11T16:11:40;4.18;;;2.28;;
41677;SDS011;27364;49.026;8.712;2023-03-11T16:14:17;5.57;;;2.45;;
41677;SDS011;27364;49.026;8.712;2023-03-11T16:16:44;4.72;;;2.20;;
41677;SDS011;27364;49.026;8.712;2023-03-11T16:19:10;7.13;;;4.30;;
41677;SDS011;27364;49.026;8.712;2023-03-11T16:21:40;8.02;;;4.35;;
41677;SDS011;27364;49.026;8.712;2023-03-11T16:24:11;5.25;;;2.30;;
41677;SDS011;27364;49.026;8.712;2023-03-11T16:26:45;6.32;;;1.80;;
41677;SDS011;27364;49.026;8.712;2023-03-11T16:29:10;4.72;;;1.70;;
41677;SDS011;27364;49.026;8.712;2023-03-11T16:31:36;4.40;;;2.22;;
41677;SDS011;27364;49.026;8.712;2023-03-11T16:34:02;4.63;;;2.08;;
41677;SDS011;27364;49.026;8.712;2023-03-11T16:36:28;3.72;;;1.98;;
41677;SDS011;27364;49.026;8.712;2023-03-11T16:38:53;4.55;;;1.90;;
41677;SDS011;27364;49.026;8.712;2023-03-11T16:41:19;4.68;;;1.90;;
41677;SDS011;27364;49.026;8.712;2023-03-11T16:43:44;6.03;;;2.13;;
41677;SDS011;27364;49.026;8.712;2023-03-11T16:46:10;4.97;;;2.15;;
41677;SDS011;27364;49.026;8.712;2023-03-11T16:48:36;7.63;;;2.65;;
41677;SDS011;27364;49.026;8.712;2023-03-11T16:51:01;6.07;;;2.60;;
41677;SDS011;27364;49.026;8.712;2023-03-11T16:53:27;7.63;;;3.50;;
41677;SDS011;27364;49.026;8.712;2023-03-11T16:55:52;7.43;;;4.10;;
41677;SDS011;27364;49.026;8.712;2023-03-11T16:58:18;7.30;;;3.58;;
41677;SDS011;27364;49.026;8.712;2023-03-11T17:00:44;25.98;;;13.65;;
41677;SDS011;27364;49.026;8.712;2023-03-11T17:03:14;77.45;;;32.75;;